Forest Acres, South Carolina
Current Conditions -  °F | °C
As of 9:53 AM on Thursday 18 Dec 2014 (Local Time) from KCUB Reporting Station
Clear Clear  
Wind Chill: 52°   Ceiling: Unl
Heat Index: 52°   Visibility: 10mi
Dew Point: 33°   Wind: 8mph
Humidity: 49%   Direction: 80°E
Pressure: 30.21"   Gusts: NA
Location:  34.025°N, 80.9562°W
Report Text: KCUB 181453Z AUTO 08007KT 10SM CLR 11/01 A3021 RMK AO2 SLP228 T01110006 53019
Loading
Personal Weather Stations






























Interactive Weather Map New forecast layout! Learn more

10-Day Weather Forecast

Advertisements
Track Severe Weather on mobile